sensor_id;sensor_type;location;lat;lon;timestamp;P1;durP1;ratioP1;P2;durP2;ratioP2
8929;SDS011;4500;49.074;9.110;2023-04-03T00:01:10;4.00;;;3.80;;
8929;SDS011;4500;49.074;9.110;2023-04-03T00:03:45;3.73;;;3.53;;
8929;SDS011;4500;49.074;9.110;2023-04-03T00:06:12;4.40;;;4.20;;
8929;SDS011;4500;49.074;9.110;2023-04-03T00:08:40;3.83;;;3.63;;
8929;SDS011;4500;49.074;9.110;2023-04-03T00:11:07;4.27;;;4.07;;
8929;SDS011;4500;49.074;9.110;2023-04-03T00:13:35;3.90;;;3.70;;
8929;SDS011;4500;49.074;9.110;2023-04-03T00:16:04;2.17;;;2.07;;
8929;SDS011;4500;49.074;9.110;2023-04-03T00:18:31;1.63;;;1.57;;
8929;SDS011;4500;49.074;9.110;2023-04-03T00:20:59;1.13;;;1.13;;
8929;SDS011;4500;49.074;9.110;2023-04-03T00:23:27;1.00;;;1.00;;
8929;SDS011;4500;49.074;9.110;2023-04-03T00:25:54;0.90;;;0.90;;
8929;SDS011;4500;49.074;9.110;2023-04-03T00:28:22;0.90;;;0.90;;
8929;SDS011;4500;49.074;9.110;2023-04-03T00:30:49;2.07;;;1.97;;
8929;SDS011;4500;49.074;9.110;2023-04-03T00:33:18;3.00;;;2.90;;
8929;SDS011;4500;49.074;9.110;2023-04-03T00:35:48;3.17;;;3.07;;
8929;SDS011;4500;49.074;9.110;2023-04-03T00:38:17;4.23;;;4.03;;
8929;SDS011;4500;49.074;9.110;2023-04-03T00:40:45;3.97;;;3.77;;
8929;SDS011;4500;49.074;9.110;2023-04-03T00:43:15;8.85;;;8.30;;
8929;SDS011;4500;49.074;9.110;2023-04-03T00:45:49;2.83;;;2.73;;
8929;SDS011;4500;49.074;9.110;2023-04-03T00:48:21;4.40;;;4.20;;
8929;SDS011;4500;49.074;9.110;2023-04-03T00:50:54;0.93;;;0.93;;
8929;SDS011;4500;49.074;9.110;2023-04-03T00:53:24;0.93;;;0.93;;
8929;SDS011;4500;49.074;9.110;2023-04-03T00:55:53;1.00;;;1.00;;
8929;SDS011;4500;49.074;9.110;2023-04-03T00:58:23;0.80;;;0.80;;
8929;SDS011;4500;49.074;9.110;2023-04-03T01:01:16;4.03;;;3.83;;
8929;SDS011;4500;49.074;9.110;2023-04-03T01:03:47;3.87;;;3.70;;
8929;SDS011;4500;49.074;9.110;2023-04-03T01:06:15;4.03;;;3.83;;
8929;SDS011;4500;49.074;9.110;2023-04-03T01:08:44;3.78;;;3.60;;
8929;SDS011;4500;49.074;9.110;2023-04-03T01:11:13;4.18;;;3.97;;
8929;SDS011;4500;49.074;9.110;2023-04-03T01:13:41;4.77;;;4.57;;
8929;SDS011;4500;49.074;9.110;2023-04-03T01:16:08;5.77;;;5.50;;
8929;SDS011;4500;49.074;9.110;2023-04-03T01:18:37;3.10;;;2.97;;
8929;SDS011;4500;49.074;9.110;2023-04-03T01:26:46;4.00;;;3.80;;
8929;SDS011;4500;49.074;9.110;2023-04-03T01:29:14;4.40;;;4.20;;
8929;SDS011;4500;49.074;9.110;2023-04-03T01:34:29;1.27;;;1.27;;
8929;SDS011;4500;49.074;9.110;2023-04-03T01:36:57;0.82;;;0.82;;
8929;SDS011;4500;49.074;9.110;2023-04-03T01:39:25;1.20;;;1.20;;
8929;SDS011;4500;49.074;9.110;2023-04-03T01:41:52;0.90;;;0.90;;
8929;SDS011;4500;49.074;9.110;2023-04-03T01:44:20;1.58;;;1.58;;
8929;SDS011;4500;49.074;9.110;2023-04-03T01:46:47;4.13;;;3.92;;
8929;SDS011;4500;49.074;9.110;2023-04-03T01:49:15;4.05;;;3.85;;
8929;SDS011;4500;49.074;9.110;2023-04-03T01:51:42;4.03;;;3.83;;
8929;SDS011;4500;49.074;9.110;2023-04-03T01:54:10;4.40;;;4.20;;
8929;SDS011;4500;49.074;9.110;2023-04-03T01:56:37;2.60;;;2.50;;
8929;SDS011;4500;49.074;9.110;2023-04-03T01:59:05;3.83;;;3.65;;
8929;SDS011;4500;49.074;9.110;2023-04-03T02:01:32;1.63;;;1.57;;
8929;SDS011;4500;49.074;9.110;2023-04-03T02:04:00;1.00;;;1.00;;
8929;SDS011;4500;49.074;9.110;2023-04-03T02:06:27;0.80;;;0.80;;
8929;SDS011;4500;49.074;9.110;2023-04-03T02:08:56;0.80;;;0.80;;
8929;SDS011;4500;49.074;9.110;2023-04-03T02:11:25;0.80;;;0.80;;
8929;SDS011;4500;49.074;9.110;2023-04-03T02:13:53;0.75;;;0.75;;
8929;SDS011;4500;49.074;9.110;2023-04-03T02:16:20;1.42;;;1.42;;
8929;SDS011;4500;49.074;9.110;2023-04-03T02:18:48;4.10;;;3.90;;
8929;SDS011;4500;49.074;9.110;2023-04-03T02:21:15;4.20;;;4.00;;
8929;SDS011;4500;49.074;9.110;2023-04-03T02:23:42;4.00;;;3.80;;
8929;SDS011;4500;49.074;9.110;2023-04-03T02:26:11;3.95;;;3.75;;
8929;SDS011;4500;49.074;9.110;2023-04-03T02:28:39;4.50;;;4.30;;
8929;SDS011;4500;49.074;9.110;2023-04-03T02:31:08;2.28;;;2.17;;
8929;SDS011;4500;49.074;9.110;2023-04-03T02:33:37;2.92;;;2.83;;
8929;SDS011;4500;49.074;9.110;2023-04-03T02:36:05;2.00;;;1.92;;
8929;SDS011;4500;49.074;9.110;2023-04-03T02:38:33;2.25;;;2.17;;
8929;SDS011;4500;49.074;9.110;2023-04-03T02:41:05;0.80;;;0.80;;
8929;SDS011;4500;49.074;9.110;2023-04-03T02:43:34;1.83;;;1.75;;
8929;SDS011;4500;49.074;9.110;2023-04-03T02:46:01;4.88;;;3.55;;
8929;SDS011;4500;49.074;9.110;2023-04-03T02:48:29;1.00;;;1.00;;
8929;SDS011;4500;49.074;9.110;2023-04-03T02:50:58;0.90;;;0.90;;
8929;SDS011;4500;49.074;9.110;2023-04-03T02:53:26;0.80;;;0.80;;
8929;SDS011;4500;49.074;9.110;2023-04-03T02:55:53;0.90;;;0.90;;
8929;SDS011;4500;49.074;9.110;2023-04-03T02:58:21;1.73;;;1.63;;
8929;SDS011;4500;49.074;9.110;2023-04-03T03:00:48;3.83;;;3.65;;
8929;SDS011;4500;49.074;9.110;2023-04-03T03:03:15;4.10;;;3.90;;
8929;SDS011;4500;49.074;9.110;2023-04-03T03:05:43;4.70;;;4.50;;
8929;SDS011;4500;49.074;9.110;2023-04-03T03:08:10;4.95;;;4.75;;
8929;SDS011;4500;49.074;9.110;2023-04-03T03:10:37;3.45;;;3.30;;
8929;SDS011;4500;49.074;9.110;2023-04-03T03:13:05;1.57;;;1.50;;
8929;SDS011;4500;49.074;9.110;2023-04-03T03:15:32;0.80;;;0.80;;
8929;SDS011;4500;49.074;9.110;2023-04-03T03:17:59;1.00;;;1.00;;
8929;SDS011;4500;49.074;9.110;2023-04-03T03:20:28;0.70;;;0.70;;
8929;SDS011;4500;49.074;9.110;2023-04-03T03:22:55;0.80;;;0.80;;
8929;SDS011;4500;49.074;9.110;2023-04-03T03:25:23;1.17;;;1.17;;
8929;SDS011;4500;49.074;9.110;2023-04-03T03:27:50;2.58;;;2.47;;
8929;SDS011;4500;49.074;9.110;2023-04-03T03:30:18;4.32;;;4.13;;
8929;SDS011;4500;49.074;9.110;2023-04-03T03:32:45;3.47;;;3.35;;
8929;SDS011;4500;49.074;9.110;2023-04-03T03:35:13;5.50;;;5.25;;
8929;SDS011;4500;49.074;9.110;2023-04-03T03:37:40;3.72;;;3.55;;
8929;SDS011;4500;49.074;9.110;2023-04-03T03:40:08;2.47;;;2.38;;
8929;SDS011;4500;49.074;9.110;2023-04-03T03:42:36;2.15;;;2.08;;
8929;SDS011;4500;49.074;9.110;2023-04-03T03:45:03;1.23;;;1.20;;
8929;SDS011;4500;49.074;9.110;2023-04-03T03:47:31;0.80;;;0.80;;
8929;SDS011;4500;49.074;9.110;2023-04-03T03:49:58;0.90;;;0.90;;
8929;SDS011;4500;49.074;9.110;2023-04-03T03:52:27;0.88;;;0.88;;
8929;SDS011;4500;49.074;9.110;2023-04-03T03:54:55;0.90;;;0.90;;
8929;SDS011;4500;49.074;9.110;2023-04-03T03:57:22;1.70;;;1.70;;
8929;SDS011;4500;49.074;9.110;2023-04-03T03:59:50;3.30;;;3.20;;
8929;SDS011;4500;49.074;9.110;2023-04-03T04:02:19;4.00;;;3.80;;
8929;SDS011;4500;49.074;9.110;2023-04-03T04:04:46;3.90;;;3.70;;
8929;SDS011;4500;49.074;9.110;2023-04-03T04:07:14;4.40;;;4.20;;
8929;SDS011;4500;49.074;9.110;2023-04-03T04:09:42;4.57;;;4.38;;
8929;SDS011;4500;49.074;9.110;2023-04-03T04:12:09;3.35;;;3.25;;
8929;SDS011;4500;49.074;9.110;2023-04-03T04:14:37;2.80;;;2.70;;
8929;SDS011;4500;49.074;9.110;2023-04-03T04:17:04;1.92;;;1.85;;
8929;SDS011;4500;49.074;9.110;2023-04-03T04:19:32;1.20;;;1.20;;
8929;SDS011;4500;49.074;9.110;2023-04-03T04:21:59;0.88;;;0.88;;
8929;SDS011;4500;49.074;9.110;2023-04-03T04:24:27;1.23;;;1.23;;
8929;SDS011;4500;49.074;9.110;2023-04-03T04:26:54;0.90;;;0.90;;
8929;SDS011;4500;49.074;9.110;2023-04-03T04:29:21;2.33;;;2.22;;
8929;SDS011;4500;49.074;9.110;2023-04-03T04:31:49;4.18;;;3.97;;
8929;SDS011;4500;49.074;9.110;2023-04-03T04:34:16;4.45;;;4.25;;
8929;SDS011;4500;49.074;9.110;2023-04-03T04:36:44;5.13;;;4.93;;
8929;SDS011;4500;49.074;9.110;2023-04-03T04:39:11;7.18;;;5.43;;
8929;SDS011;4500;49.074;9.110;2023-04-03T04:41:39;3.75;;;3.55;;
8929;SDS011;4500;49.074;9.110;2023-04-03T04:44:06;2.28;;;2.20;;
8929;SDS011;4500;49.074;9.110;2023-04-03T04:46:33;0.90;;;0.90;;
8929;SDS011;4500;49.074;9.110;2023-04-03T04:49:01;0.98;;;0.98;;
8929;SDS011;4500;49.074;9.110;2023-04-03T04:51:29;0.90;;;0.90;;
8929;SDS011;4500;49.074;9.110;2023-04-03T04:54:13;5.13;;;4.90;;
8929;SDS011;4500;49.074;9.110;2023-04-03T04:56:41;2.80;;;2.70;;
8929;SDS011;4500;49.074;9.110;2023-04-03T04:59:09;1.58;;;1.52;;
8929;SDS011;4500;49.074;9.110;2023-04-03T05:01:36;0.95;;;0.95;;
8929;SDS011;4500;49.074;9.110;2023-04-03T05:04:04;0.90;;;0.90;;
8929;SDS011;4500;49.074;9.110;2023-04-03T05:06:32;7.50;;;4.40;;
8929;SDS011;4500;49.074;9.110;2023-04-03T05:09:02;1.00;;;1.00;;
8929;SDS011;4500;49.074;9.110;2023-04-03T05:11:31;0.93;;;0.93;;
8929;SDS011;4500;49.074;9.110;2023-04-03T05:13:59;0.93;;;0.93;;
8929;SDS011;4500;49.074;9.110;2023-04-03T05:16:26;2.92;;;2.83;;
8929;SDS011;4500;49.074;9.110;2023-04-03T05:18:54;4.70;;;4.50;;
8929;SDS011;4500;49.074;9.110;2023-04-03T05:21:21;4.70;;;4.50;;
8929;SDS011;4500;49.074;9.110;2023-04-03T05:23:51;4.13;;;3.92;;
8929;SDS011;4500;49.074;9.110;2023-04-03T05:26:19;4.45;;;4.25;;
8929;SDS011;4500;49.074;9.110;2023-04-03T05:28:47;4.43;;;4.22;;
8929;SDS011;4500;49.074;9.110;2023-04-03T05:31:15;3.13;;;3.03;;
8929;SDS011;4500;49.074;9.110;2023-04-03T05:33:42;1.80;;;1.73;;
8929;SDS011;4500;49.074;9.110;2023-04-03T05:36:10;0.90;;;0.90;;
8929;SDS011;4500;49.074;9.110;2023-04-03T05:38:39;0.90;;;0.90;;
8929;SDS011;4500;49.074;9.110;2023-04-03T05:41:07;0.80;;;0.80;;
8929;SDS011;4500;49.074;9.110;2023-04-03T05:43:36;0.90;;;0.90;;
8929;SDS011;4500;49.074;9.110;2023-04-03T05:46:09;0.90;;;0.90;;
8929;SDS011;4500;49.074;9.110;2023-04-03T05:48:39;0.90;;;0.90;;
8929;SDS011;4500;49.074;9.110;2023-04-03T05:51:09;0.85;;;0.85;;
8929;SDS011;4500;49.074;9.110;2023-04-03T05:53:43;1.52;;;1.48;;
8929;SDS011;4500;49.074;9.110;2023-04-03T05:56:12;0.90;;;0.90;;
8929;SDS011;4500;49.074;9.110;2023-04-03T05:58:40;0.90;;;0.90;;
8929;SDS011;4500;49.074;9.110;2023-04-03T06:01:08;1.10;;;1.10;;
8929;SDS011;4500;49.074;9.110;2023-04-03T06:03:35;0.80;;;0.80;;
8929;SDS011;4500;49.074;9.110;2023-04-03T06:06:05;1.20;;;1.20;;
8929;SDS011;4500;49.074;9.110;2023-04-03T06:08:34;1.00;;;1.00;;
8929;SDS011;4500;49.074;9.110;2023-04-03T06:11:02;1.40;;;1.40;;
8929;SDS011;4500;49.074;9.110;2023-04-03T06:13:29;3.35;;;3.25;;
8929;SDS011;4500;49.074;9.110;2023-04-03T06:15:56;3.28;;;3.17;;
8929;SDS011;4500;49.074;9.110;2023-04-03T06:18:25;3.78;;;3.58;;
8929;SDS011;4500;49.074;9.110;2023-04-03T06:20:52;3.05;;;2.95;;
8929;SDS011;4500;49.074;9.110;2023-04-03T06:23:20;1.85;;;1.75;;
8929;SDS011;4500;49.074;9.110;2023-04-03T06:25:49;2.53;;;2.42;;
8929;SDS011;4500;49.074;9.110;2023-04-03T06:28:17;1.65;;;1.58;;
8929;SDS011;4500;49.074;9.110;2023-04-03T06:30:56;3.95;;;3.75;;
8929;SDS011;4500;49.074;9.110;2023-04-03T06:33:26;3.47;;;3.35;;
8929;SDS011;4500;49.074;9.110;2023-04-03T06:35:57;2.97;;;2.88;;
8929;SDS011;4500;49.074;9.110;2023-04-03T06:38:27;3.73;;;3.57;;
8929;SDS011;4500;49.074;9.110;2023-04-03T06:40:57;3.17;;;3.08;;
8929;SDS011;4500;49.074;9.110;2023-04-03T06:43:28;3.60;;;3.45;;
8929;SDS011;4500;49.074;9.110;2023-04-03T06:46:05;3.47;;;3.38;;
8929;SDS011;4500;49.074;9.110;2023-04-03T06:48:47;1.00;;;1.00;;
8929;SDS011;4500;49.074;9.110;2023-04-03T06:51:20;0.93;;;0.93;;
8929;SDS011;4500;49.074;9.110;2023-04-03T06:53:49;1.88;;;1.80;;
8929;SDS011;4500;49.074;9.110;2023-04-03T06:56:18;1.83;;;1.75;;
8929;SDS011;4500;49.074;9.110;2023-04-03T06:58:49;1.30;;;1.30;;
8929;SDS011;4500;49.074;9.110;2023-04-03T07:01:18;1.55;;;1.50;;
8929;SDS011;4500;49.074;9.110;2023-04-03T07:03:46;0.88;;;0.88;;
8929;SDS011;4500;49.074;9.110;2023-04-03T07:06:15;1.52;;;1.42;;
8929;SDS011;4500;49.074;9.110;2023-04-03T07:08:44;0.90;;;0.90;;
8929;SDS011;4500;49.074;9.110;2023-04-03T07:11:12;0.80;;;0.80;;
8929;SDS011;4500;49.074;9.110;2023-04-03T07:13:40;1.00;;;1.00;;
8929;SDS011;4500;49.074;9.110;2023-04-03T07:16:07;2.38;;;2.28;;
8929;SDS011;4500;49.074;9.110;2023-04-03T07:18:39;3.42;;;3.30;;
8929;SDS011;4500;49.074;9.110;2023-04-03T07:21:16;1.00;;;1.00;;
8929;SDS011;4500;49.074;9.110;2023-04-03T07:23:46;0.90;;;0.90;;
8929;SDS011;4500;49.074;9.110;2023-04-03T07:26:14;1.00;;;1.00;;
8929;SDS011;4500;49.074;9.110;2023-04-03T07:28:42;0.93;;;0.93;;
8929;SDS011;4500;49.074;9.110;2023-04-03T07:31:11;1.20;;;1.20;;
8929;SDS011;4500;49.074;9.110;2023-04-03T07:33:42;1.42;;;1.42;;
8929;SDS011;4500;49.074;9.110;2023-04-03T07:36:15;0.90;;;0.90;;
8929;SDS011;4500;49.074;9.110;2023-04-03T07:38:44;0.80;;;0.80;;
8929;SDS011;4500;49.074;9.110;2023-04-03T07:41:16;1.70;;;1.60;;
8929;SDS011;4500;49.074;9.110;2023-04-03T07:43:45;0.90;;;0.90;;
8929;SDS011;4500;49.074;9.110;2023-04-03T07:46:13;0.90;;;0.90;;
8929;SDS011;4500;49.074;9.110;2023-04-03T07:48:41;1.20;;;1.20;;
8929;SDS011;4500;49.074;9.110;2023-04-03T07:51:10;2.97;;;2.88;;
8929;SDS011;4500;49.074;9.110;2023-04-03T07:53:37;3.40;;;3.25;;
8929;SDS011;4500;49.074;9.110;2023-04-03T07:56:05;3.15;;;3.05;;
8929;SDS011;4500;49.074;9.110;2023-04-03T07:58:33;4.00;;;3.80;;
8929;SDS011;4500;49.074;9.110;2023-04-03T08:01:01;3.40;;;3.30;;
8929;SDS011;4500;49.074;9.110;2023-04-03T08:03:29;2.75;;;2.65;;
8929;SDS011;4500;49.074;9.110;2023-04-03T08:06:01;2.08;;;2.00;;
8929;SDS011;4500;49.074;9.110;2023-04-03T08:08:33;3.95;;;3.75;;
8929;SDS011;4500;49.074;9.110;2023-04-03T08:11:01;2.33;;;2.22;;
8929;SDS011;4500;49.074;9.110;2023-04-03T08:13:29;2.07;;;1.97;;
8929;SDS011;4500;49.074;9.110;2023-04-03T08:15:57;1.77;;;1.70;;
8929;SDS011;4500;49.074;9.110;2023-04-03T08:18:25;0.90;;;0.90;;
8929;SDS011;4500;49.074;9.110;2023-04-03T08:20:53;0.85;;;0.85;;
8929;SDS011;4500;49.074;9.110;2023-04-03T08:23:22;0.90;;;0.90;;
8929;SDS011;4500;49.074;9.110;2023-04-03T08:25:49;0.95;;;0.95;;
8929;SDS011;4500;49.074;9.110;2023-04-03T08:28:17;1.35;;;1.35;;
8929;SDS011;4500;49.074;9.110;2023-04-03T08:30:45;3.10;;;3.00;;
8929;SDS011;4500;49.074;9.110;2023-04-03T08:33:13;2.97;;;2.88;;
8929;SDS011;4500;49.074;9.110;2023-04-03T08:35:42;3.33;;;3.20;;
8929;SDS011;4500;49.074;9.110;2023-04-03T08:38:10;3.67;;;3.55;;
8929;SDS011;4500;49.074;9.110;2023-04-03T08:40:38;3.33;;;3.20;;
8929;SDS011;4500;49.074;9.110;2023-04-03T08:45:48;3.05;;;2.95;;
8929;SDS011;4500;49.074;9.110;2023-04-03T08:48:24;2.08;;;1.98;;
8929;SDS011;4500;49.074;9.110;2023-04-03T08:50:56;0.80;;;0.80;;
8929;SDS011;4500;49.074;9.110;2023-04-03T08:53:29;1.10;;;1.10;;
8929;SDS011;4500;49.074;9.110;2023-04-03T08:56:02;0.80;;;0.80;;
8929;SDS011;4500;49.074;9.110;2023-04-03T08:58:36;1.80;;;1.73;;
8929;SDS011;4500;49.074;9.110;2023-04-03T09:01:22;4.20;;;4.00;;
8929;SDS011;4500;49.074;9.110;2023-04-03T09:03:55;1.00;;;1.00;;
8929;SDS011;4500;49.074;9.110;2023-04-03T09:06:26;1.40;;;1.40;;
8929;SDS011;4500;49.074;9.110;2023-04-03T09:11:46;2.10;;;2.03;;
8929;SDS011;4500;49.074;9.110;2023-04-03T09:20:08;0.90;;;0.90;;
8929;SDS011;4500;49.074;9.110;2023-04-03T09:22:46;3.67;;;3.50;;
8929;SDS011;4500;49.074;9.110;2023-04-03T09:25:27;2.90;;;2.80;;
8929;SDS011;4500;49.074;9.110;2023-04-03T09:28:02;0.80;;;0.80;;
8929;SDS011;4500;49.074;9.110;2023-04-03T09:30:30;1.00;;;1.00;;
8929;SDS011;4500;49.074;9.110;2023-04-03T09:32:58;1.13;;;1.13;;
8929;SDS011;4500;49.074;9.110;2023-04-03T09:35:29;2.40;;;2.30;;
8929;SDS011;4500;49.074;9.110;2023-04-03T09:40:41;1.57;;;1.50;;
8929;SDS011;4500;49.074;9.110;2023-04-03T09:46:30;3.33;;;3.23;;
8929;SDS011;4500;49.074;9.110;2023-04-03T09:50:29;0.90;;;0.90;;
8929;SDS011;4500;49.074;9.110;2023-04-03T09:52:58;2.97;;;2.87;;
8929;SDS011;4500;49.074;9.110;2023-04-03T09:55:26;3.10;;;3.00;;
8929;SDS011;4500;49.074;9.110;2023-04-03T09:58:02;2.93;;;2.83;;
8929;SDS011;4500;49.074;9.110;2023-04-03T10:03:00;3.10;;;3.00;;
8929;SDS011;4500;49.074;9.110;2023-04-03T10:05:35;2.90;;;2.80;;
8929;SDS011;4500;49.074;9.110;2023-04-03T10:10:47;0.80;;;0.80;;
8929;SDS011;4500;49.074;9.110;2023-04-03T10:13:16;0.73;;;0.73;;
8929;SDS011;4500;49.074;9.110;2023-04-03T10:16:11;1.17;;;1.13;;
8929;SDS011;4500;49.074;9.110;2023-04-03T10:18:45;1.00;;;1.00;;
8929;SDS011;4500;49.074;9.110;2023-04-03T10:32:16;2.90;;;2.80;;
8929;SDS011;4500;49.074;9.110;2023-04-03T10:34:48;0.90;;;0.90;;
8929;SDS011;4500;49.074;9.110;2023-04-03T10:37:24;1.20;;;1.17;;
8929;SDS011;4500;49.074;9.110;2023-04-03T10:48:24;0.80;;;0.80;;
8929;SDS011;4500;49.074;9.110;2023-04-03T10:51:15;1.23;;;1.23;;
8929;SDS011;4500;49.074;9.110;2023-04-03T10:53:52;0.70;;;0.70;;
8929;SDS011;4500;49.074;9.110;2023-04-03T10:56:40;1.17;;;1.17;;
8929;SDS011;4500;49.074;9.110;2023-04-03T10:59:47;2.97;;;2.87;;
8929;SDS011;4500;49.074;9.110;2023-04-03T11:04:55;0.70;;;0.70;;
8929;SDS011;4500;49.074;9.110;2023-04-03T11:07:39;2.20;;;2.10;;
8929;SDS011;4500;49.074;9.110;2023-04-03T11:10:13;3.03;;;2.93;;
8929;SDS011;4500;49.074;9.110;2023-04-03T11:12:56;0.83;;;0.83;;
8929;SDS011;4500;49.074;9.110;2023-04-03T11:15:30;1.33;;;1.27;;
8929;SDS011;4500;49.074;9.110;2023-04-03T11:18:21;1.43;;;1.37;;
8929;SDS011;4500;49.074;9.110;2023-04-03T11:20:57;0.80;;;0.80;;
8929;SDS011;4500;49.074;9.110;2023-04-03T11:23:44;2.80;;;2.70;;
8929;SDS011;4500;49.074;9.110;2023-04-03T11:26:19;2.50;;;2.40;;
8929;SDS011;4500;49.074;9.110;2023-04-03T11:34:59;0.70;;;0.70;;
8929;SDS011;4500;49.074;9.110;2023-04-03T11:37:30;0.90;;;0.90;;
8929;SDS011;4500;49.074;9.110;2023-04-03T11:40:04;1.20;;;1.17;;
8929;SDS011;4500;49.074;9.110;2023-04-03T11:42:36;2.23;;;2.13;;
8929;SDS011;4500;49.074;9.110;2023-04-03T11:48:03;0.63;;;0.63;;
8929;SDS011;4500;49.074;9.110;2023-04-03T11:50:50;1.77;;;1.67;;
8929;SDS011;4500;49.074;9.110;2023-04-03T11:53:51;2.60;;;2.50;;
8929;SDS011;4500;49.074;9.110;2023-04-03T12:01:48;2.60;;;2.50;;
8929;SDS011;4500;49.074;9.110;2023-04-03T12:04:20;2.50;;;2.40;;
8929;SDS011;4500;49.074;9.110;2023-04-03T12:07:11;2.40;;;2.30;;
8929;SDS011;4500;49.074;9.110;2023-04-03T12:15:21;0.70;;;0.70;;
8929;SDS011;4500;49.074;9.110;2023-04-03T12:17:51;2.43;;;2.33;;
8929;SDS011;4500;49.074;9.110;2023-04-03T12:23:24;2.80;;;2.70;;
8929;SDS011;4500;49.074;9.110;2023-04-03T12:25:59;2.50;;;2.40;;
8929;SDS011;4500;49.074;9.110;2023-04-03T12:28:37;0.97;;;0.97;;
8929;SDS011;4500;49.074;9.110;2023-04-03T12:31:06;0.70;;;0.70;;
8929;SDS011;4500;49.074;9.110;2023-04-03T12:36:36;2.27;;;2.17;;
8929;SDS011;4500;49.074;9.110;2023-04-03T12:45:16;1.10;;;1.10;;
8929;SDS011;4500;49.074;9.110;2023-04-03T12:47:49;2.80;;;2.70;;
8929;SDS011;4500;49.074;9.110;2023-04-03T12:52:52;1.97;;;1.87;;
8929;SDS011;4500;49.074;9.110;2023-04-03T12:55:23;3.33;;;3.23;;
8929;SDS011;4500;49.074;9.110;2023-04-03T12:57:50;3.03;;;2.93;;
8929;SDS011;4500;49.074;9.110;2023-04-03T13:00:18;1.20;;;1.17;;
8929;SDS011;4500;49.074;9.110;2023-04-03T13:02:47;1.33;;;1.30;;
8929;SDS011;4500;49.074;9.110;2023-04-03T13:05:16;0.70;;;0.70;;
8929;SDS011;4500;49.074;9.110;2023-04-03T13:07:48;1.07;;;1.07;;
8929;SDS011;4500;49.074;9.110;2023-04-03T13:10:21;2.33;;;2.23;;
8929;SDS011;4500;49.074;9.110;2023-04-03T13:12:55;1.10;;;1.10;;
8929;SDS011;4500;49.074;9.110;2023-04-03T13:15:39;1.33;;;1.33;;
8929;SDS011;4500;49.074;9.110;2023-04-03T13:18:24;0.90;;;0.90;;
8929;SDS011;4500;49.074;9.110;2023-04-03T13:20:59;2.10;;;2.00;;
8929;SDS011;4500;49.074;9.110;2023-04-03T13:23:35;2.50;;;2.40;;
8929;SDS011;4500;49.074;9.110;2023-04-03T13:26:04;2.30;;;2.20;;
8929;SDS011;4500;49.074;9.110;2023-04-03T13:28:33;2.20;;;2.10;;
8929;SDS011;4500;49.074;9.110;2023-04-03T13:31:03;2.80;;;2.70;;
8929;SDS011;4500;49.074;9.110;2023-04-03T13:36:24;0.90;;;0.90;;
8929;SDS011;4500;49.074;9.110;2023-04-03T13:41:44;2.10;;;2.00;;
8929;SDS011;4500;49.074;9.110;2023-04-03T13:46:53;1.77;;;1.67;;
8929;SDS011;4500;49.074;9.110;2023-04-03T13:49:31;8.13;;;3.53;;
8929;SDS011;4500;49.074;9.110;2023-04-03T13:54:54;2.03;;;1.93;;
8929;SDS011;4500;49.074;9.110;2023-04-03T13:57:24;0.80;;;0.80;;
8929;SDS011;4500;49.074;9.110;2023-04-03T13:59:51;1.43;;;1.33;;
8929;SDS011;4500;49.074;9.110;2023-04-03T14:02:28;2.23;;;2.13;;
8929;SDS011;4500;49.074;9.110;2023-04-03T14:04:59;0.70;;;0.70;;
8929;SDS011;4500;49.074;9.110;2023-04-03T14:07:29;0.80;;;0.80;;
8929;SDS011;4500;49.074;9.110;2023-04-03T14:09:57;0.80;;;0.80;;
8929;SDS011;4500;49.074;9.110;2023-04-03T14:12:35;0.80;;;0.80;;
8929;SDS011;4500;49.074;9.110;2023-04-03T14:15:06;1.23;;;1.20;;
8929;SDS011;4500;49.074;9.110;2023-04-03T14:17:51;1.10;;;1.10;;
8929;SDS011;4500;49.074;9.110;2023-04-03T14:20:22;2.03;;;1.93;;
8929;SDS011;4500;49.074;9.110;2023-04-03T14:22:50;1.53;;;1.53;;
8929;SDS011;4500;49.074;9.110;2023-04-03T14:25:18;2.03;;;1.93;;
8929;SDS011;4500;49.074;9.110;2023-04-03T14:27:47;2.60;;;2.50;;
8929;SDS011;4500;49.074;9.110;2023-04-03T14:30:20;2.43;;;2.33;;
8929;SDS011;4500;49.074;9.110;2023-04-03T14:32:52;1.00;;;1.00;;
8929;SDS011;4500;49.074;9.110;2023-04-03T14:35:20;1.17;;;1.17;;
8929;SDS011;4500;49.074;9.110;2023-04-03T14:37:48;2.20;;;2.10;;
8929;SDS011;4500;49.074;9.110;2023-04-03T14:40:18;2.30;;;2.20;;
8929;SDS011;4500;49.074;9.110;2023-04-03T14:42:49;2.30;;;2.20;;
8929;SDS011;4500;49.074;9.110;2023-04-03T14:45:17;2.13;;;2.03;;
8929;SDS011;4500;49.074;9.110;2023-04-03T14:47:49;2.50;;;2.40;;
8929;SDS011;4500;49.074;9.110;2023-04-03T14:50:20;2.03;;;1.93;;
8929;SDS011;4500;49.074;9.110;2023-04-03T14:52:53;0.70;;;0.70;;
8929;SDS011;4500;49.074;9.110;2023-04-03T14:55:24;0.70;;;0.70;;
8929;SDS011;4500;49.074;9.110;2023-04-03T14:57:52;0.90;;;0.90;;
8929;SDS011;4500;49.074;9.110;2023-04-03T15:00:20;1.30;;;1.30;;
8929;SDS011;4500;49.074;9.110;2023-04-03T15:02:48;1.90;;;1.80;;
8929;SDS011;4500;49.074;9.110;2023-04-03T15:05:16;2.33;;;2.23;;
8929;SDS011;4500;49.074;9.110;2023-04-03T15:07:51;2.10;;;2.00;;
8929;SDS011;4500;49.074;9.110;2023-04-03T15:10:22;1.03;;;1.03;;
8929;SDS011;4500;49.074;9.110;2023-04-03T15:12:51;5.03;;;3.03;;
8929;SDS011;4500;49.074;9.110;2023-04-03T15:15:20;1.73;;;1.67;;
8929;SDS011;4500;49.074;9.110;2023-04-03T15:17:52;2.10;;;2.00;;
8929;SDS011;4500;49.074;9.110;2023-04-03T15:20:22;0.90;;;0.90;;
8929;SDS011;4500;49.074;9.110;2023-04-03T15:22:53;0.73;;;0.73;;
8929;SDS011;4500;49.074;9.110;2023-04-03T15:25:23;0.60;;;0.60;;
8929;SDS011;4500;49.074;9.110;2023-04-03T15:27:53;0.80;;;0.80;;
8929;SDS011;4500;49.074;9.110;2023-04-03T15:30:21;0.77;;;0.77;;
8929;SDS011;4500;49.074;9.110;2023-04-03T15:32:49;1.83;;;1.73;;
8929;SDS011;4500;49.074;9.110;2023-04-03T15:35:17;2.00;;;1.90;;
8929;SDS011;4500;49.074;9.110;2023-04-03T15:37:49;2.03;;;1.93;;
8929;SDS011;4500;49.074;9.110;2023-04-03T15:40:18;2.30;;;2.20;;
8929;SDS011;4500;49.074;9.110;2023-04-03T15:42:46;2.00;;;1.90;;
8929;SDS011;4500;49.074;9.110;2023-04-03T15:45:14;2.03;;;1.93;;
8929;SDS011;4500;49.074;9.110;2023-04-03T15:47:41;2.03;;;1.93;;
8929;SDS011;4500;49.074;9.110;2023-04-03T15:50:09;2.73;;;2.63;;
8929;SDS011;4500;49.074;9.110;2023-04-03T15:52:37;1.20;;;1.20;;
8929;SDS011;4500;49.074;9.110;2023-04-03T15:55:04;0.77;;;0.77;;
8929;SDS011;4500;49.074;9.110;2023-04-03T15:57:35;0.87;;;0.87;;
8929;SDS011;4500;49.074;9.110;2023-04-03T16:00:04;0.97;;;0.97;;
8929;SDS011;4500;49.074;9.110;2023-04-03T16:02:33;1.03;;;1.00;;
8929;SDS011;4500;49.074;9.110;2023-04-03T16:05:02;0.70;;;0.70;;
8929;SDS011;4500;49.074;9.110;2023-04-03T16:07:30;0.67;;;0.67;;
8929;SDS011;4500;49.074;9.110;2023-04-03T16:09:58;0.80;;;0.80;;
8929;SDS011;4500;49.074;9.110;2023-04-03T16:12:27;0.60;;;0.60;;
8929;SDS011;4500;49.074;9.110;2023-04-03T16:14:55;0.80;;;0.80;;
8929;SDS011;4500;49.074;9.110;2023-04-03T16:17:22;0.70;;;0.70;;
8929;SDS011;4500;49.074;9.110;2023-04-03T16:19:50;1.87;;;1.77;;
8929;SDS011;4500;49.074;9.110;2023-04-03T16:22:18;2.93;;;2.83;;
8929;SDS011;4500;49.074;9.110;2023-04-03T16:24:45;3.17;;;3.07;;
8929;SDS011;4500;49.074;9.110;2023-04-03T16:27:13;2.30;;;2.20;;
8929;SDS011;4500;49.074;9.110;2023-04-03T16:29:41;3.90;;;3.70;;
8929;SDS011;4500;49.074;9.110;2023-04-03T16:32:09;2.47;;;2.37;;
8929;SDS011;4500;49.074;9.110;2023-04-03T16:34:36;3.30;;;3.20;;
8929;SDS011;4500;49.074;9.110;2023-04-03T16:37:04;1.13;;;1.10;;
8929;SDS011;4500;49.074;9.110;2023-04-03T16:39:32;0.90;;;0.90;;
8929;SDS011;4500;49.074;9.110;2023-04-03T16:42:00;0.60;;;0.60;;
8929;SDS011;4500;49.074;9.110;2023-04-03T16:44:28;1.20;;;1.20;;
8929;SDS011;4500;49.074;9.110;2023-04-03T16:46:57;0.70;;;0.70;;
8929;SDS011;4500;49.074;9.110;2023-04-03T16:49:26;0.80;;;0.80;;
8929;SDS011;4500;49.074;9.110;2023-04-03T16:52:00;0.70;;;0.70;;
8929;SDS011;4500;49.074;9.110;2023-04-03T16:54:29;0.90;;;0.90;;
8929;SDS011;4500;49.074;9.110;2023-04-03T16:56:59;0.90;;;0.90;;
8929;SDS011;4500;49.074;9.110;2023-04-03T16:59:27;0.90;;;0.90;;
8929;SDS011;4500;49.074;9.110;2023-04-03T17:01:56;0.83;;;0.83;;
8929;SDS011;4500;49.074;9.110;2023-04-03T17:04:24;0.80;;;0.80;;
8929;SDS011;4500;49.074;9.110;2023-04-03T17:06:52;1.10;;;1.10;;
8929;SDS011;4500;49.074;9.110;2023-04-03T17:09:19;2.03;;;1.93;;
8929;SDS011;4500;49.074;9.110;2023-04-03T17:11:47;3.70;;;3.60;;
8929;SDS011;4500;49.074;9.110;2023-04-03T17:14:14;4.20;;;4.00;;